createdAt,value
2019-04-04T00:00:14.353Z,69.50
2019-04-04T00:01:12.795Z,69.60
2019-04-04T00:02:13.176Z,69.50
2019-04-04T00:03:12.779Z,69.60
2019-04-04T00:04:12.843Z,69.09
2019-04-04T00:05:12.781Z,69.50
2019-04-04T00:06:12.739Z,68.65
2019-04-04T00:07:12.725Z,69.26
2019-04-04T00:08:12.733Z,69.50
2019-04-04T00:09:12.704Z,68.24
2019-04-04T00:10:12.724Z,68.44
2019-04-04T00:11:12.677Z,67.93
2019-04-04T00:12:12.675Z,67.83
2019-04-04T00:13:12.652Z,67.62
2019-04-04T00:14:13.407Z,68.34
2019-04-04T00:15:14.924Z,68.44
2019-04-04T00:16:13.962Z,67.44
2019-04-04T00:17:12.614Z,67.62
2019-04-04T00:18:12.606Z,67.93
2019-04-04T00:19:12.595Z,68.13
2019-04-04T00:20:25.734Z,68.13
2019-04-04T00:21:12.605Z,68.13
2019-04-04T00:22:12.583Z,68.99
2019-04-04T00:23:12.653Z,68.99
2019-04-04T00:24:12.589Z,68.57
2019-04-04T00:25:12.638Z,69.60
2019-04-04T00:26:12.552Z,69.50
2019-04-04T00:27:13.665Z,69.74
2019-04-04T00:28:14.631Z,69.74
2019-04-04T00:29:12.517Z,69.64
2019-04-04T00:30:12.472Z,69.53
2019-04-04T00:31:12.487Z,70.04
2019-04-04T00:32:12.517Z,69.77
2019-04-04T00:33:12.524Z,70.08
2019-04-04T00:34:13.785Z,69.87
2019-04-04T00:35:12.499Z,70.18
2019-04-04T00:36:12.497Z,70.59
2019-04-04T00:37:12.454Z,70.52
2019-04-04T00:38:12.520Z,70.73
2019-04-04T00:39:12.414Z,70.94
2019-04-04T00:40:12.359Z,71.04
2019-04-04T00:41:13.027Z,71.45
2019-04-04T00:42:12.337Z,71.66
2019-04-04T00:43:12.314Z,72.09
2019-04-04T00:44:12.323Z,72.20
2019-04-04T00:45:12.307Z,72.09
2019-04-04T00:46:12.288Z,72.41
2019-04-04T00:47:12.273Z,72.30
2019-04-04T00:48:12.265Z,72.44
2019-04-04T00:49:12.268Z,72.72
2019-04-04T00:50:12.259Z,72.51
2019-04-04T00:51:12.233Z,72.44
2019-04-04T00:52:12.219Z,72.54
2019-04-04T00:53:12.370Z,72.44
2019-04-04T00:54:14.027Z,72.54
2019-04-04T00:55:13.880Z,72.44
2019-04-04T00:56:12.168Z,72.54
2019-04-04T00:57:12.159Z,72.37
2019-04-04T00:58:12.151Z,72.78
2019-04-04T00:59:12.134Z,72.47
2019-04-04T01:00:12.129Z,72.68
2019-04-04T01:01:12.161Z,72.78
2019-04-04T01:02:12.101Z,73.09
2019-04-04T01:03:12.099Z,73.30
2019-04-04T01:04:12.091Z,73.30
2019-04-04T01:05:12.071Z,73.43
2019-04-04T01:06:12.080Z,73.33
2019-04-04T01:07:12.068Z,73.33
2019-04-04T01:08:12.042Z,73.74
2019-04-04T01:09:13.362Z,74.16
2019-04-04T01:10:12.014Z,73.85
2019-04-04T01:11:12.006Z,74.08
2019-04-04T01:12:12.021Z,74.16
2019-04-04T01:13:12.008Z,74.40
2019-04-04T01:14:11.965Z,74.19
2019-04-04T01:15:11.978Z,74.19
2019-04-04T01:16:11.954Z,74.53
2019-04-04T01:17:11.961Z,74.63
2019-04-04T01:18:11.923Z,75.05
2019-04-04T01:19:11.934Z,75.15
2019-04-04T01:20:11.903Z,75.05
2019-04-04T01:21:11.892Z,75.26
2019-04-04T01:22:11.890Z,74.98
2019-04-04T01:23:11.869Z,75.18
2019-04-04T01:24:11.860Z,74.88
2019-04-04T01:25:11.901Z,75.18
2019-04-04T01:26:11.846Z,74.88
2019-04-04T01:27:11.842Z,75.18
2019-04-04T01:28:11.811Z,74.98
2019-04-04T01:29:11.790Z,75.09
2019-04-04T01:30:12.588Z,74.98
2019-04-04T01:31:14.640Z,75.18
2019-04-04T01:32:11.802Z,75.49
2019-04-04T01:33:11.755Z,75.49
2019-04-04T01:34:11.742Z,76.12
2019-04-04T01:35:11.733Z,76.73
2019-04-04T01:36:11.729Z,76.42
2019-04-04T01:37:11.721Z,76.59
2019-04-04T01:38:11.715Z,74.95
2019-04-04T01:39:11.692Z,74.91
2019-04-04T01:40:11.705Z,74.16
2019-04-04T01:41:11.743Z,73.85
2019-04-04T01:42:11.688Z,73.71
2019-04-04T01:43:12.207Z,73.09
2019-04-04T01:44:11.827Z,72.99
2019-04-04T01:45:13.101Z,72.47
2019-04-04T01:46:13.033Z,73.19
2019-04-04T01:47:11.608Z,72.75
2019-04-04T01:48:11.605Z,72.58
2019-04-04T01:49:11.585Z,73.19
2019-04-04T01:50:11.591Z,72.99
2019-04-04T01:51:11.553Z,72.99
2019-04-04T01:52:11.557Z,72.88
2019-04-04T01:53:11.555Z,72.99
2019-04-04T01:54:11.532Z,72.58
2019-04-04T01:55:11.516Z,72.27
2019-04-04T01:56:11.544Z,72.03
2019-04-04T01:57:11.482Z,71.55
2019-04-04T01:58:11.734Z,72.06
2019-04-04T01:59:12.290Z,72.37
2019-04-04T02:00:14.741Z,72.44
2019-04-04T02:01:11.465Z,72.44
2019-04-04T02:02:11.435Z,72.44
2019-04-04T02:03:11.483Z,72.27
2019-04-04T02:04:11.409Z,72.34
2019-04-04T02:05:11.400Z,72.16
2019-04-04T02:06:11.393Z,72.37
2019-04-04T02:07:11.380Z,72.47
2019-04-04T02:08:11.366Z,72.68
2019-04-04T02:09:11.726Z,72.92
2019-04-04T02:10:11.387Z,72.92
2019-04-04T02:11:11.338Z,73.43
2019-04-04T02:12:11.330Z,73.68
2019-04-04T02:13:11.316Z,73.68
2019-04-04T02:14:11.913Z,73.98
2019-04-04T02:15:13.944Z,73.81
2019-04-04T02:16:11.342Z,73.60
2019-04-04T02:17:11.267Z,74.57
2019-04-04T02:18:11.256Z,74.46
2019-04-04T02:19:11.245Z,74.26
2019-04-04T02:20:11.243Z,75.01
2019-04-04T02:21:11.219Z,75.01
2019-04-04T02:22:11.245Z,75.22
2019-04-04T02:23:11.216Z,75.05
2019-04-04T02:24:11.193Z,74.95
2019-04-04T02:25:11.189Z,75.26
2019-04-04T02:26:11.156Z,75.26
2019-04-04T02:27:11.167Z,75.36
2019-04-04T02:28:11.144Z,74.98
2019-04-04T02:29:11.672Z,75.19
2019-04-04T02:30:14.631Z,75.60
2019-04-04T02:31:11.122Z,75.81
2019-04-04T02:32:11.101Z,75.60
2019-04-04T02:33:11.085Z,75.63
2019-04-04T02:34:11.117Z,76.77
2019-04-04T02:35:11.745Z,76.29
2019-04-04T02:36:11.051Z,76.29
2019-04-04T02:37:11.038Z,76.60
2019-04-04T02:38:11.054Z,76.60
2019-04-04T02:39:11.059Z,77.01
2019-04-04T02:40:11.021Z,76.39
2019-04-04T02:41:15.002Z,76.84
2019-04-04T02:42:10.985Z,76.53
2019-04-04T02:43:10.969Z,77.05
2019-04-04T02:44:19.665Z,77.70
2019-04-04T02:45:11.069Z,77.70
2019-04-04T02:46:11.473Z,78.85
2019-04-04T02:47:10.979Z,78.22
2019-04-04T02:48:10.932Z,77.70
2019-04-04T02:49:30.781Z,77.60
2019-04-04T02:50:10.893Z,77.81
2019-04-04T02:51:10.938Z,78.40
2019-04-04T02:52:13.272Z,78.36
2019-04-04T02:53:10.860Z,78.50
2019-04-04T02:54:10.911Z,79.13
2019-04-04T02:55:10.848Z,79.40
2019-04-04T02:56:10.855Z,79.81
2019-04-04T02:57:10.812Z,80.12
2019-04-04T02:58:14.000Z,80.57
2019-04-04T02:59:10.805Z,80.78
2019-04-04T03:00:11.771Z,80.99
2019-04-04T03:01:10.783Z,81.09
2019-04-04T03:02:10.765Z,80.88
2019-04-04T03:03:10.740Z,80.99
2019-04-04T03:04:13.513Z,81.61
2019-04-04T03:05:10.732Z,80.88
2019-04-04T03:06:10.787Z,80.99
2019-04-04T03:07:10.707Z,80.99
2019-04-04T03:08:11.249Z,80.99
2019-04-04T03:09:10.782Z,81.09
2019-04-04T03:10:15.240Z,81.40
2019-04-04T03:11:11.718Z,81.02
2019-04-04T03:12:10.651Z,81.51
2019-04-04T03:13:10.715Z,81.40
2019-04-04T03:14:10.624Z,82.44
2019-04-04T03:15:10.636Z,82.44
2019-04-04T03:16:10.603Z,81.92
2019-04-04T03:17:23.722Z,81.40
2019-04-04T03:18:10.641Z,81.30
2019-04-04T03:19:11.298Z,81.54
2019-04-04T03:20:10.699Z,81.09
2019-04-04T03:21:10.583Z,81.13
2019-04-04T03:22:10.528Z,80.82
2019-04-04T03:23:10.807Z,81.51
2019-04-04T03:24:10.514Z,81.96
2019-04-04T03:25:14.215Z,81.96
2019-04-04T03:26:10.517Z,82.48
2019-04-04T03:27:10.483Z,81.65
2019-04-04T03:28:10.503Z,81.82
2019-04-04T03:29:10.937Z,81.34
2019-04-04T03:30:14.571Z,81.23
2019-04-04T03:31:11.429Z,81.23
2019-04-04T03:32:14.482Z,81.54
2019-04-04T03:33:10.454Z,81.44
2019-04-04T03:34:12.498Z,81.96
2019-04-04T03:35:10.404Z,82.68
2019-04-04T03:36:10.391Z,83.00
2019-04-04T03:37:12.335Z,83.51
2019-04-04T03:38:10.694Z,83.31
2019-04-04T03:39:10.376Z,82.17
2019-04-04T03:40:10.354Z,82.48
2019-04-04T03:41:10.348Z,82.51
2019-04-04T03:42:10.307Z,82.31
2019-04-04T03:43:10.300Z,82.31
2019-04-04T03:44:10.294Z,82.41
2019-04-04T03:45:10.285Z,82.62
2019-04-04T03:46:10.785Z,82.55
2019-04-04T03:47:11.271Z,82.45
2019-04-04T03:48:10.234Z,82.45
2019-04-04T03:49:10.227Z,82.76
2019-04-04T03:50:10.224Z,82.76
2019-04-04T03:51:10.211Z,83.48
2019-04-04T03:52:11.392Z,83.76
2019-04-04T03:53:10.203Z,83.55
2019-04-04T03:54:10.172Z,83.07
2019-04-04T03:55:10.177Z,83.69
2019-04-04T03:56:10.153Z,83.48
2019-04-04T03:57:12.208Z,83.48
2019-04-04T03:58:10.128Z,83.80
2019-04-04T03:59:10.154Z,83.80
2019-04-04T04:00:10.121Z,83.38
2019-04-04T04:01:13.127Z,83.28
2019-04-04T04:02:10.085Z,83.69
2019-04-04T04:03:10.079Z,83.42
2019-04-04T04:04:10.067Z,82.49
2019-04-04T04:05:10.124Z,83.22
2019-04-04T04:06:10.139Z,83.32
2019-04-04T04:07:13.806Z,83.32
2019-04-04T04:08:11.787Z,83.63
2019-04-04T04:09:10.007Z,83.84
2019-04-04T04:10:10.001Z,83.84
2019-04-04T04:11:10.028Z,84.25
2019-04-04T04:12:11.139Z,84.36
2019-04-04T04:13:09.958Z,84.19
2019-04-04T04:14:09.961Z,84.29
2019-04-04T04:15:09.941Z,84.81
2019-04-04T04:16:10.022Z,84.39
2019-04-04T04:17:11.845Z,84.50
2019-04-04T04:18:09.921Z,84.50
2019-04-04T04:19:09.891Z,84.64
2019-04-04T04:20:09.899Z,85.16
2019-04-04T04:21:11.027Z,84.81
2019-04-04T04:22:12.860Z,84.53
2019-04-04T04:23:09.861Z,84.64
2019-04-04T04:24:09.839Z,84.95
2019-04-04T04:25:09.846Z,85.36
2019-04-04T04:26:10.154Z,84.22
2019-04-04T04:27:14.463Z,84.64
2019-04-04T04:28:10.805Z,84.43
2019-04-04T04:29:09.786Z,84.33
2019-04-04T04:30:09.767Z,84.84
2019-04-04T04:31:14.229Z,84.68
2019-04-04T04:32:09.790Z,84.64
2019-04-04T04:33:09.766Z,84.58
2019-04-04T04:34:09.715Z,85.05
2019-04-04T04:35:09.720Z,85.16
2019-04-04T04:36:10.376Z,85.05
2019-04-04T04:37:10.694Z,85.36
2019-04-04T04:38:09.682Z,85.20
2019-04-04T04:39:09.678Z,85.61
2019-04-04T04:40:13.792Z,85.05
2019-04-04T04:41:10.653Z,85.30
2019-04-04T04:42:09.634Z,85.41
2019-04-04T04:43:09.620Z,85.20
2019-04-04T04:44:09.632Z,85.72
2019-04-04T04:45:12.094Z,85.20
2019-04-04T04:46:09.599Z,85.41
2019-04-04T04:47:09.588Z,85.72
2019-04-04T04:48:09.593Z,85.61
2019-04-04T04:49:09.566Z,85.41
2019-04-04T04:50:10.016Z,85.20
2019-04-04T04:51:12.089Z,85.20
2019-04-04T04:52:09.525Z,85.41
2019-04-04T04:53:09.514Z,84.99
2019-04-04T04:54:09.495Z,85.30
2019-04-04T04:55:11.998Z,85.30
2019-04-04T04:56:09.491Z,85.10
2019-04-04T04:57:14.295Z,85.30
2019-04-04T04:58:11.225Z,85.61
2019-04-04T04:59:12.848Z,85.55
2019-04-04T05:00:09.462Z,85.13
2019-04-04T05:01:09.437Z,84.89
2019-04-04T05:02:09.414Z,85.30
2019-04-04T05:03:09.398Z,85.41
2019-04-04T05:04:09.391Z,85.41
2019-04-04T05:05:09.379Z,85.41
2019-04-04T05:06:09.497Z,85.51
2019-04-04T05:07:09.350Z,85.41
2019-04-04T05:08:10.202Z,85.51
2019-04-04T05:09:09.330Z,85.20
2019-04-04T05:10:09.327Z,85.41
2019-04-04T05:11:09.321Z,84.89
2019-04-04T05:12:09.306Z,85.20
2019-04-04T05:13:09.323Z,84.99
2019-04-04T05:14:09.276Z,85.51
2019-04-04T05:15:09.301Z,85.82
2019-04-04T05:16:09.273Z,86.13
2019-04-04T05:17:10.110Z,86.44
2019-04-04T05:18:11.795Z,86.76
2019-04-04T05:19:09.212Z,86.61
2019-04-04T05:20:09.206Z,86.76
2019-04-04T05:21:09.191Z,86.24
2019-04-04T05:22:09.820Z,86.19
2019-04-04T05:23:11.076Z,85.82
2019-04-04T05:24:09.154Z,85.36
2019-04-04T05:25:09.227Z,85.47
2019-04-04T05:26:09.743Z,86.72
2019-04-04T05:27:09.158Z,86.76
2019-04-04T05:28:10.719Z,86.30
2019-04-04T05:29:24.334Z,86.09
2019-04-04T05:30:20.463Z,86.30
2019-04-04T05:31:19.840Z,86.72
2019-04-04T05:32:09.197Z,88.75
2019-04-04T05:33:09.244Z,88.82
2019-04-04T05:34:09.990Z,89.03
2019-04-04T05:35:18.900Z,89.46
2019-04-04T05:37:21.319Z,88.34
2019-04-04T05:38:21.199Z,86.65
2019-04-04T05:39:21.229Z,85.99
2019-04-04T05:40:23.270Z,85.02
2019-04-04T05:41:21.257Z,84.05
2019-04-04T05:42:21.083Z,82.97
2019-04-04T05:43:21.067Z,82.15
2019-04-04T05:44:21.093Z,82.25
2019-04-04T05:45:21.048Z,81.59
2019-04-04T05:46:21.014Z,82.00
2019-04-04T05:47:22.914Z,81.66
2019-04-04T05:48:21.017Z,81.28
2019-04-04T05:49:20.991Z,81.14
2019-04-04T05:50:20.969Z,81.14
2019-04-04T05:51:20.963Z,80.69
2019-04-04T05:52:20.998Z,80.79
2019-04-04T05:53:21.575Z,79.93
2019-04-04T05:54:20.938Z,79.52
2019-04-04T05:55:20.935Z,79.21
2019-04-04T05:56:24.047Z,78.86
2019-04-04T05:57:20.892Z,78.69
2019-04-04T05:58:22.489Z,78.66
2019-04-04T05:59:23.661Z,78.45
2019-04-04T06:00:20.886Z,78.55
2019-04-04T06:01:20.844Z,78.66
2019-04-04T06:02:20.831Z,78.80
2019-04-04T06:03:20.825Z,78.66
2019-04-04T06:04:20.807Z,78.14
2019-04-04T06:05:20.827Z,78.66
2019-04-04T06:06:20.824Z,78.55
2019-04-04T06:07:20.792Z,78.55
2019-04-04T06:08:20.781Z,79.17
2019-04-04T06:09:20.756Z,79.17
2019-04-04T06:10:20.737Z,79.17
2019-04-04T06:11:21.756Z,78.86
2019-04-04T06:12:20.717Z,78.97
2019-04-04T06:13:22.213Z,78.97
2019-04-04T06:14:20.794Z,79.03
2019-04-04T06:15:20.683Z,78.72
2019-04-04T06:16:20.772Z,78.72
2019-04-04T06:17:20.669Z,78.48
2019-04-04T06:18:20.649Z,77.89
2019-04-04T06:19:20.662Z,74.60
2019-04-04T06:20:20.629Z,70.53
2019-04-04T06:21:20.610Z,68.15
2019-04-04T06:22:21.253Z,67.61
2019-04-04T06:23:20.688Z,62.93
2019-04-04T06:24:20.581Z,63.45
2019-04-04T06:25:20.586Z,62.45
2019-04-04T06:26:20.550Z,57.43
2019-04-04T06:27:20.574Z,57.13
2019-04-04T06:28:20.563Z,60.02
2019-04-04T06:29:20.527Z,59.23
2019-04-04T06:30:20.798Z,54.41
2019-04-04T06:31:20.505Z,55.98
2019-04-04T06:32:20.485Z,55.19
2019-04-04T06:33:20.486Z,50.26
2019-04-04T06:34:20.612Z,51.35
2019-04-04T06:35:20.455Z,51.60
2019-04-04T06:36:20.453Z,53.63
2019-04-04T06:37:20.718Z,51.90
2019-04-04T06:38:22.957Z,52.39
2019-04-04T06:39:20.434Z,52.11
2019-04-04T06:40:20.401Z,51.67
2019-04-04T06:41:20.431Z,51.90
2019-04-04T06:42:20.371Z,52.18
2019-04-04T06:43:20.368Z,51.57
2019-04-04T06:44:20.356Z,51.95
2019-04-04T06:45:20.352Z,50.63
2019-04-04T06:46:22.722Z,50.84
2019-04-04T06:47:20.320Z,50.84
2019-04-04T06:48:20.309Z,51.47
2019-04-04T06:49:20.337Z,51.67
2019-04-04T06:50:20.329Z,52.64
2019-04-04T06:51:20.274Z,50.16
2019-04-04T06:52:23.275Z,48.74
2019-04-04T06:53:22.213Z,49.70
2019-04-04T06:54:20.245Z,49.85
2019-04-04T06:55:20.282Z,51.75
2019-04-04T06:56:20.234Z,51.85
2019-04-04T06:57:20.221Z,51.57
2019-04-04T06:58:20.195Z,52.99
2019-04-04T06:59:20.200Z,54.28
2019-04-04T07:00:20.175Z,53.32
2019-04-04T07:01:21.863Z,51.86
2019-04-04T07:02:20.146Z,51.55
2019-04-04T07:03:20.184Z,50.76
2019-04-04T07:04:20.130Z,50.81
2019-04-04T07:05:20.123Z,52.05
2019-04-04T07:06:20.157Z,52.69
2019-04-04T07:07:20.128Z,52.43
2019-04-04T07:08:20.082Z,52.98
2019-04-04T07:09:20.078Z,53.39
2019-04-04T07:10:21.818Z,53.83
2019-04-04T07:11:21.555Z,55.18
2019-04-04T07:12:24.337Z,55.07
2019-04-04T07:13:26.490Z,55.96
2019-04-04T07:14:20.020Z,54.69
2019-04-04T07:15:20.005Z,55.27
2019-04-04T07:16:19.996Z,52.81
2019-04-04T07:17:19.995Z,54.66
2019-04-04T07:18:19.964Z,52.86
2019-04-04T07:19:19.959Z,53.90
2019-04-04T07:20:19.942Z,56.48
2019-04-04T07:21:20.628Z,57.67
2019-04-04T07:22:20.610Z,57.54
2019-04-04T07:23:19.904Z,55.99
2019-04-04T07:24:19.933Z,55.38
2019-04-04T07:25:19.886Z,55.38
2019-04-04T07:26:19.882Z,56.09
2019-04-04T07:27:19.895Z,54.85
2019-04-04T07:28:19.852Z,55.68
2019-04-04T07:29:19.845Z,56.09
2019-04-04T07:30:19.843Z,54.87
2019-04-04T07:31:19.826Z,56.12
2019-04-04T07:32:19.815Z,56.09
2019-04-04T07:33:21.392Z,56.02
2019-04-04T07:34:19.791Z,56.50
2019-04-04T07:35:21.189Z,54.59
2019-04-04T07:36:20.199Z,56.76
2019-04-04T07:37:21.917Z,57.47
2019-04-04T07:38:19.743Z,56.73
2019-04-04T07:39:19.751Z,56.40
2019-04-04T07:40:20.339Z,57.21
2019-04-04T07:41:19.708Z,56.02
2019-04-04T07:42:19.695Z,57.47
2019-04-04T07:43:20.094Z,56.24
2019-04-04T07:44:22.985Z,57.47
2019-04-04T07:45:19.659Z,56.93
2019-04-04T07:46:19.648Z,57.34
2019-04-04T07:47:19.636Z,56.32
2019-04-04T07:48:19.636Z,57.31
2019-04-04T07:49:21.096Z,56.40
2019-04-04T07:50:19.607Z,54.79
2019-04-04T07:51:19.623Z,55.84
2019-04-04T07:52:19.580Z,56.35
2019-04-04T07:53:19.582Z,55.91
2019-04-04T07:54:19.572Z,56.63
2019-04-04T07:55:19.545Z,54.59
2019-04-04T07:56:19.532Z,56.32
2019-04-04T07:57:20.214Z,56.32
2019-04-04T07:58:19.541Z,56.40
2019-04-04T07:59:19.516Z,53.83
2019-04-04T08:00:19.491Z,54.97
2019-04-04T08:01:19.482Z,54.44
2019-04-04T08:02:19.462Z,54.64
2019-04-04T08:03:19.457Z,54.24
2019-04-04T08:04:19.480Z,54.11
2019-04-04T08:05:19.427Z,53.50
2019-04-04T08:06:19.413Z,53.80
2019-04-04T08:07:19.402Z,54.82
2019-04-04T08:08:19.391Z,55.83
2019-04-04T08:09:19.393Z,54.39
2019-04-04T08:10:20.880Z,52.56
2019-04-04T08:11:19.362Z,53.80
2019-04-04T08:12:19.357Z,55.94
2019-04-04T08:13:19.355Z,56.42
2019-04-04T08:14:19.390Z,57.13
2019-04-04T08:15:19.328Z,56.37
2019-04-04T08:16:19.313Z,52.30
2019-04-04T08:17:19.294Z,51.72
2019-04-04T08:18:19.277Z,52.43
2019-04-04T08:19:19.302Z,52.43
2019-04-04T08:20:19.298Z,52.84
2019-04-04T08:21:19.245Z,52.23
2019-04-04T08:22:19.335Z,53.37
2019-04-04T08:23:19.242Z,53.55
2019-04-04T08:24:19.215Z,54.87
2019-04-04T08:25:19.252Z,53.02
2019-04-04T08:26:19.259Z,52.71
2019-04-04T08:27:19.201Z,52.23
2019-04-04T08:28:19.174Z,52.15
2019-04-04T08:29:19.160Z,53.32
2019-04-04T08:30:19.198Z,54.24
2019-04-04T08:31:19.173Z,53.90
2019-04-04T08:32:19.124Z,53.80
2019-04-04T08:33:19.117Z,51.97
2019-04-04T08:34:21.032Z,54.11
2019-04-04T08:35:19.138Z,53.19
2019-04-04T08:36:19.078Z,53.17
2019-04-04T08:37:19.083Z,51.84
2019-04-04T08:38:19.292Z,54.28
2019-04-04T08:39:19.042Z,54.69
2019-04-04T08:40:19.030Z,52.43
2019-04-04T08:41:19.035Z,51.59
2019-04-04T08:42:19.047Z,52.30
2019-04-04T08:43:19.019Z,51.79
2019-04-04T08:44:18.986Z,51.90
2019-04-04T08:45:18.980Z,51.75
2019-04-04T08:46:19.998Z,52.15
2019-04-04T08:47:18.976Z,51.97
2019-04-04T08:48:18.961Z,53.80
2019-04-04T08:49:18.926Z,53.50
2019-04-04T08:50:18.938Z,53.47
2019-04-04T08:51:18.929Z,53.98
2019-04-04T08:52:20.788Z,53.34
2019-04-04T08:53:18.882Z,53.45
2019-04-04T08:54:18.881Z,50.81
2019-04-04T08:55:18.884Z,52.43
2019-04-04T08:56:18.893Z,52.20
2019-04-04T08:57:19.606Z,52.30
2019-04-04T08:58:18.842Z,51.87
2019-04-04T08:59:19.535Z,52.79
2019-04-04T09:00:18.854Z,52.56
2019-04-04T09:01:18.839Z,52.05
2019-04-04T09:02:19.862Z,52.13
2019-04-04T09:03:19.522Z,50.40
2019-04-04T09:04:41.558Z,51.29
2019-04-04T09:05:19.524Z,50.28
2019-04-04T09:06:19.743Z,48.54
2019-04-04T09:07:18.827Z,48.05
2019-04-04T09:08:18.800Z,48.07
2019-04-04T09:09:18.841Z,47.97
2019-04-04T09:10:20.555Z,47.87
2019-04-04T09:11:19.740Z,50.71
2019-04-04T09:12:30.137Z,50.60
2019-04-04T09:13:18.978Z,50.48
2019-04-04T09:14:19.333Z,50.56
2019-04-04T09:15:19.150Z,49.75
2019-04-04T09:16:19.586Z,49.95
2019-04-04T09:17:19.665Z,48.63
2019-04-04T09:18:18.702Z,50.66
2019-04-04T09:19:19.583Z,49.85
2019-04-04T09:20:18.641Z,49.65
2019-04-04T09:21:18.623Z,50.26
2019-04-04T09:22:19.675Z,49.04
2019-04-04T09:23:20.588Z,49.14
2019-04-04T09:24:18.549Z,49.49
2019-04-04T09:25:31.689Z,50.48
2019-04-04T09:26:19.316Z,51.70
2019-04-04T09:27:19.535Z,51.79
2019-04-04T09:28:19.171Z,51.72
2019-04-04T09:29:19.120Z,52.33
2019-04-04T09:30:21.668Z,52.03
2019-04-04T09:31:29.379Z,53.65
2019-04-04T09:32:18.590Z,53.55
2019-04-04T09:33:20.927Z,52.00
2019-04-04T09:34:18.651Z,52.10
2019-04-04T09:35:18.482Z,51.49
2019-04-04T09:36:18.664Z,52.40
2019-04-04T09:37:19.553Z,51.79
2019-04-04T09:38:18.380Z,52.71
2019-04-04T09:39:18.433Z,53.12
2019-04-04T09:40:18.495Z,51.77
2019-04-04T09:41:18.354Z,52.15
2019-04-04T09:42:18.368Z,53.88
2019-04-04T09:43:18.318Z,53.67
2019-04-04T09:44:18.348Z,56.29
2019-04-04T09:45:18.288Z,55.38
2019-04-04T09:46:18.326Z,54.64
2019-04-04T09:47:18.274Z,52.58
2019-04-04T09:48:18.305Z,52.28
2019-04-04T09:49:19.122Z,52.79
2019-04-04T09:50:18.245Z,51.98
2019-04-04T09:51:18.320Z,52.56
2019-04-04T09:52:19.729Z,52.84
2019-04-04T09:53:19.295Z,53.34
2019-04-04T09:54:22.186Z,52.31
2019-04-04T09:55:19.407Z,52.71
2019-04-04T09:56:18.174Z,51.80
2019-04-04T09:57:19.103Z,51.90
2019-04-04T09:58:18.205Z,51.90
2019-04-04T09:59:18.160Z,53.02
2019-04-04T10:00:20.119Z,52.71
2019-04-04T10:01:18.134Z,50.59
2019-04-04T10:02:18.330Z,52.92
2019-04-04T10:03:18.141Z,50.81
2019-04-04T10:05:29.654Z,52.73
2019-04-04T10:06:29.607Z,51.62
2019-04-04T10:07:29.318Z,51.82
2019-04-04T10:08:29.304Z,53.04
2019-04-04T10:09:29.522Z,51.90
2019-04-04T10:10:30.233Z,52.31
2019-04-04T10:11:29.226Z,52.28
2019-04-04T10:12:29.645Z,51.98
2019-04-04T10:13:29.226Z,51.88
2019-04-04T10:14:29.482Z,51.57
2019-04-04T10:16:53.413Z,52.00
2019-04-04T10:17:52.649Z,52.92
2019-04-04T10:18:52.774Z,51.98
2019-04-04T10:22:42.702Z,50.84
2019-04-04T10:23:16.162Z,48.54
2019-04-04T10:24:15.817Z,49.44
2019-04-04T10:25:16.793Z,50.28
2019-04-04T10:26:26.792Z,51.19
2019-04-04T10:27:16.048Z,51.67
2019-04-04T10:28:15.900Z,50.46
2019-04-04T10:29:17.709Z,51.88
2019-04-04T10:30:15.654Z,51.07
2019-04-04T10:31:15.657Z,50.84
2019-04-04T10:32:15.673Z,52.94
2019-04-04T10:33:15.685Z,52.23
2019-04-04T10:34:15.680Z,50.79
2019-04-04T10:35:15.612Z,50.49
2019-04-04T10:36:15.624Z,50.57
2019-04-04T10:37:15.612Z,49.98
2019-04-04T10:38:15.590Z,51.90
2019-04-04T10:39:28.028Z,49.38
2019-04-04T10:40:16.640Z,50.38
2019-04-04T10:41:15.526Z,51.37
2019-04-04T10:42:15.517Z,50.57
2019-04-04T10:43:16.108Z,49.73
2019-04-04T10:44:15.486Z,48.52
2019-04-04T10:45:15.489Z,48.82
2019-04-04T10:46:15.506Z,49.53
2019-04-04T10:47:15.459Z,51.76
2019-04-04T10:48:15.434Z,50.74
2019-04-04T10:49:15.484Z,50.62
2019-04-04T10:50:15.470Z,47.89
2019-04-04T10:51:15.461Z,48.82
2019-04-04T10:52:15.393Z,51.35
2019-04-04T10:53:15.408Z,49.15
2019-04-04T10:54:15.391Z,50.09
2019-04-04T10:55:15.399Z,51.81
2019-04-04T10:56:15.347Z,52.51
2019-04-04T10:57:15.353Z,50.29
2019-04-04T10:58:15.324Z,50.82
2019-04-04T10:59:15.316Z,51.83
2019-04-04T11:00:15.310Z,52.84
2019-04-04T11:01:15.429Z,53.02
2019-04-04T11:02:15.342Z,52.59
2019-04-04T11:03:15.299Z,49.55
2019-04-04T11:04:16.269Z,51.25
2019-04-04T11:05:18.404Z,50.44
2019-04-04T11:06:15.241Z,50.64
2019-04-04T11:07:27.364Z,50.77
2019-04-04T11:08:15.315Z,52.56
2019-04-04T11:09:15.350Z,50.84
2019-04-04T11:10:15.575Z,48.46
2019-04-04T11:11:15.210Z,50.49
2019-04-04T11:12:15.163Z,50.79
2019-04-04T11:13:15.216Z,50.49
2019-04-04T11:14:15.142Z,50.69
2019-04-04T11:15:15.149Z,50.69
2019-04-04T11:16:15.118Z,48.46
2019-04-04T11:17:15.164Z,49.98
2019-04-04T11:18:15.158Z,48.90
2019-04-04T11:19:16.077Z,49.48
2019-04-04T11:20:15.098Z,50.31
2019-04-04T11:21:15.071Z,50.21
2019-04-04T11:22:15.081Z,50.51
2019-04-04T11:23:15.055Z,51.75
2019-04-04T11:24:15.060Z,52.64
2019-04-04T11:25:15.019Z,51.83
2019-04-04T11:26:15.037Z,50.49
2019-04-04T11:27:17.415Z,50.18
2019-04-04T11:28:14.994Z,51.20
2019-04-04T11:29:14.993Z,50.18
2019-04-04T11:30:14.980Z,49.78
2019-04-04T11:31:14.974Z,50.38
2019-04-04T11:32:14.935Z,52.11
2019-04-04T11:33:14.927Z,51.37
2019-04-04T11:34:14.924Z,50.84
2019-04-04T11:35:14.919Z,52.46
2019-04-04T11:36:14.895Z,50.34
2019-04-04T11:37:14.892Z,50.04
2019-04-04T11:38:14.876Z,50.21
2019-04-04T11:39:14.850Z,50.72
2019-04-04T11:40:14.872Z,49.91
2019-04-04T11:41:14.831Z,48.70
2019-04-04T11:42:14.824Z,50.09
2019-04-04T11:43:14.869Z,49.91
2019-04-04T11:44:14.827Z,52.31
2019-04-04T11:45:14.826Z,50.27
2019-04-04T11:46:14.781Z,50.16
2019-04-04T11:47:14.802Z,49.36
2019-04-04T11:48:14.758Z,48.45
2019-04-04T11:49:14.753Z,49.84
2019-04-04T11:50:14.755Z,50.04
2019-04-04T11:51:14.711Z,49.72
2019-04-04T11:52:14.726Z,47.72
2019-04-04T11:53:14.691Z,50.04
2019-04-04T11:54:15.680Z,50.47
2019-04-04T11:55:14.688Z,48.55
2019-04-04T11:56:14.658Z,49.99
2019-04-04T11:57:14.691Z,47.47
2019-04-04T11:58:14.636Z,46.56
2019-04-04T11:59:14.624Z,47.99
2019-04-04T12:00:14.619Z,48.90
2019-04-04T12:01:14.597Z,47.97
2019-04-04T12:02:14.586Z,49.21
2019-04-04T12:03:14.603Z,49.69
2019-04-04T12:04:14.565Z,49.28
2019-04-04T12:05:14.571Z,50.07
2019-04-04T12:06:14.544Z,49.46
2019-04-04T12:07:14.534Z,51.76
2019-04-04T12:08:14.529Z,48.02
2019-04-04T12:09:14.561Z,48.65
2019-04-04T12:10:14.504Z,50.07
2019-04-04T12:11:14.485Z,52.36
2019-04-04T12:12:14.491Z,51.93
2019-04-04T12:13:14.463Z,48.33
2019-04-04T12:14:14.453Z,48.13
2019-04-04T12:15:14.489Z,47.12
2019-04-04T12:16:14.438Z,48.73
2019-04-04T12:17:14.421Z,47.22
2019-04-04T12:18:14.409Z,49.72
2019-04-04T12:19:14.389Z,51.64
2019-04-04T12:20:14.418Z,47.88
2019-04-04T12:21:14.401Z,48.18
2019-04-04T12:22:14.363Z,46.69
2019-04-04T12:23:14.356Z,48.10
2019-04-04T12:24:14.337Z,49.72
2019-04-04T12:25:14.328Z,49.92
2019-04-04T12:26:14.330Z,49.90
2019-04-04T12:27:14.327Z,48.16
2019-04-04T12:28:14.298Z,49.95
2019-04-04T12:29:14.283Z,48.11
2019-04-04T12:30:14.275Z,46.40
2019-04-04T12:31:14.287Z,46.83
2019-04-04T12:32:14.242Z,45.82
2019-04-04T12:33:14.266Z,46.34
2019-04-04T12:34:14.224Z,45.84
2019-04-04T12:35:14.222Z,44.55
2019-04-04T12:36:24.035Z,45.74
2019-04-04T12:37:15.201Z,46.39
2019-04-04T12:38:14.180Z,46.89
2019-04-04T12:39:14.200Z,46.79
2019-04-04T12:40:20.398Z,45.89
2019-04-04T12:41:14.144Z,45.98
2019-04-04T12:42:14.144Z,46.89
2019-04-04T12:43:14.127Z,45.76
2019-04-04T12:44:14.115Z,45.26
2019-04-04T12:45:14.119Z,48.18
2019-04-04T12:46:14.092Z,48.06
2019-04-04T12:47:14.099Z,44.11
2019-04-04T12:48:14.070Z,47.86
2019-04-04T12:49:14.055Z,44.92
2019-04-04T12:50:14.041Z,43.82
2019-04-04T12:51:14.055Z,45.56
2019-04-04T12:52:14.017Z,44.93
2019-04-04T12:53:14.018Z,44.27
2019-04-04T12:54:14.007Z,46.19
2019-04-04T12:55:13.994Z,48.21
2019-04-04T12:56:13.972Z,46.47
2019-04-04T12:57:13.997Z,47.96
2019-04-04T12:58:14.019Z,46.42